createdAt,value
2022-10-02T00:00:29.908Z, 22.55
2022-10-02T00:01:30.024Z, 22.52
2022-10-02T00:02:30.049Z, 22.52
2022-10-02T00:03:30.067Z, 22.52
2022-10-02T00:04:30.112Z, 22.52
2022-10-02T00:05:30.160Z, 22.52
2022-10-02T00:06:30.136Z, 22.53
2022-10-02T00:07:30.131Z, 22.51
2022-10-02T00:08:30.172Z, 22.52
2022-10-02T00:09:30.188Z, 22.52
2022-10-02T00:10:30.304Z, 22.53
2022-10-02T00:11:30.321Z, 22.54
2022-10-02T00:12:30.342Z, 22.54
2022-10-02T00:13:30.377Z, 22.52
2022-10-02T00:14:30.356Z, 22.54
2022-10-02T00:15:30.399Z, 22.54
2022-10-02T00:16:30.565Z, 22.53
2022-10-02T00:17:30.461Z, 22.54
2022-10-02T00:18:30.522Z, 22.53
2022-10-02T00:19:30.540Z, 22.52
2022-10-02T00:20:30.641Z, 22.54
2022-10-02T00:21:30.689Z, 22.52
2022-10-02T00:22:30.707Z, 22.51
2022-10-02T00:23:30.697Z, 22.53
2022-10-02T00:24:30.729Z, 22.54
2022-10-02T00:25:30.748Z, 22.53
2022-10-02T00:26:30.785Z, 22.55
2022-10-02T00:27:30.836Z, 22.54
2022-10-02T00:28:32.073Z, 22.53
2022-10-02T00:29:30.970Z, 22.55
2022-10-02T00:30:30.988Z, 22.54
2022-10-02T00:31:31.090Z, 22.53
2022-10-02T00:32:30.985Z, 22.54
2022-10-02T00:33:31.028Z, 22.53
2022-10-02T00:34:31.069Z, 22.55
2022-10-02T00:35:31.101Z, 22.54
2022-10-02T00:36:31.134Z, 22.52
2022-10-02T00:37:31.170Z, 22.55
2022-10-02T00:38:31.204Z, 22.53
2022-10-02T00:39:31.227Z, 22.53
2022-10-02T00:40:31.278Z, 22.53
2022-10-02T00:41:31.307Z, 22.54
2022-10-02T00:42:31.425Z, 22.53
2022-10-02T00:43:31.459Z, 22.54
2022-10-02T00:44:31.456Z, 22.53
2022-10-02T00:45:31.521Z, 22.53
2022-10-02T00:46:31.507Z, 22.55
2022-10-02T00:47:31.527Z, 22.54
2022-10-02T00:48:31.554Z, 22.53
2022-10-02T00:49:31.582Z, 22.54
2022-10-02T00:50:31.617Z, 22.53
2022-10-02T00:51:31.725Z, 22.52
2022-10-02T00:52:31.720Z, 22.55
2022-10-02T00:53:31.808Z, 22.51
2022-10-02T00:54:31.851Z, 22.54
2022-10-02T00:55:31.830Z, 22.54
2022-10-02T00:56:31.838Z, 22.54
2022-10-02T00:57:31.894Z, 22.52
2022-10-02T00:58:31.926Z, 22.54
2022-10-02T00:59:32.011Z, 22.51
2022-10-02T01:00:32.044Z, 22.53
2022-10-02T01:01:32.029Z, 22.53
2022-10-02T01:02:32.147Z, 22.53
2022-10-02T01:03:32.142Z, 22.53
2022-10-02T01:04:32.124Z, 22.53
2022-10-02T01:05:32.143Z, 22.52
2022-10-02T01:06:32.378Z, 22.53
2022-10-02T01:07:32.237Z, 22.52
2022-10-02T01:08:32.258Z, 22.51
2022-10-02T01:09:32.277Z, 22.53
2022-10-02T01:10:32.313Z, 22.50
2022-10-02T01:11:32.408Z, 22.51
2022-10-02T01:12:32.415Z, 22.54
2022-10-02T01:13:32.396Z, 22.53
2022-10-02T01:14:32.506Z, 22.53
2022-10-02T01:15:32.481Z, 22.55
2022-10-02T01:16:32.650Z, 22.53
2022-10-02T01:17:32.617Z, 22.52
2022-10-02T01:18:32.607Z, 22.53
2022-10-02T01:19:32.625Z, 22.54
2022-10-02T01:20:32.669Z, 22.54
2022-10-02T01:21:32.692Z, 22.54
2022-10-02T01:22:32.748Z, 22.52
2022-10-02T01:23:32.791Z, 22.54
2022-10-02T01:24:32.830Z, 22.53
2022-10-02T01:25:32.856Z, 22.54
2022-10-02T01:26:33.180Z, 22.53
2022-10-02T01:27:35.525Z, 22.53
2022-10-02T01:28:32.950Z, 22.52
2022-10-02T01:29:32.991Z, 22.54
2022-10-02T01:30:33.023Z, 22.53
2022-10-02T01:31:33.151Z, 22.52
2022-10-02T01:32:33.156Z, 22.53
2022-10-02T01:33:33.145Z, 22.51
2022-10-02T01:34:33.190Z, 22.52
2022-10-02T01:35:33.222Z, 22.53
2022-10-02T01:36:33.664Z, 22.51
2022-10-02T01:37:33.293Z, 22.52
2022-10-02T01:38:33.296Z, 22.51
2022-10-02T01:39:33.396Z, 22.53
2022-10-02T01:40:33.383Z, 22.52
2022-10-02T01:41:33.411Z, 22.55
2022-10-02T01:42:33.441Z, 22.52
2022-10-02T01:43:33.476Z, 22.52
2022-10-02T01:44:33.513Z, 22.54
2022-10-02T01:45:33.662Z, 22.53
2022-10-02T01:46:33.946Z, 22.53
2022-10-02T01:47:33.674Z, 22.54
2022-10-02T01:48:33.657Z, 22.53
2022-10-02T01:49:33.755Z, 22.55
2022-10-02T01:50:33.790Z, 22.52
2022-10-02T01:51:33.769Z, 22.52
2022-10-02T01:52:33.767Z, 22.53
2022-10-02T01:53:33.795Z, 22.51
2022-10-02T01:54:33.856Z, 22.52
2022-10-02T01:55:33.933Z, 22.54
2022-10-02T01:56:34.369Z, 22.52
2022-10-02T01:57:34.006Z, 22.52
2022-10-02T01:58:33.983Z, 22.52
2022-10-02T01:59:34.058Z, 22.52
2022-10-02T02:00:34.125Z, 22.52
2022-10-02T02:01:34.154Z, 22.52
2022-10-02T02:02:34.169Z, 22.51
2022-10-02T02:03:34.142Z, 22.52
2022-10-02T02:04:34.164Z, 22.54
2022-10-02T02:05:34.209Z, 22.51
2022-10-02T02:06:34.627Z, 22.50
2022-10-02T02:07:34.274Z, 22.53
2022-10-02T02:08:34.321Z, 22.51
2022-10-02T02:09:34.415Z, 22.52
2022-10-02T02:10:34.374Z, 22.51
2022-10-02T02:11:34.430Z, 22.52
2022-10-02T02:12:34.478Z, 22.53
2022-10-02T02:13:34.517Z, 22.52
2022-10-02T02:14:34.586Z, 22.50
2022-10-02T02:15:34.573Z, 22.51
2022-10-02T02:16:35.074Z, 22.53
2022-10-02T02:17:34.621Z, 22.51
2022-10-02T02:18:34.681Z, 22.52
2022-10-02T02:19:34.696Z, 22.52
2022-10-02T02:20:34.799Z, 22.52
2022-10-02T02:21:34.785Z, 22.52
2022-10-02T02:22:34.836Z, 22.51
2022-10-02T02:23:34.841Z, 22.51
2022-10-02T02:24:34.875Z, 22.52
2022-10-02T02:25:34.981Z, 22.51
2022-10-02T02:26:35.359Z, 22.51
2022-10-02T02:27:34.973Z, 22.51
2022-10-02T02:28:35.065Z, 22.50
2022-10-02T02:29:35.079Z, 22.52
2022-10-02T02:30:35.043Z, 22.53
2022-10-02T02:31:35.189Z, 22.52
2022-10-02T02:32:35.174Z, 22.52
2022-10-02T02:33:35.208Z, 22.54
2022-10-02T02:34:35.182Z, 22.52
2022-10-02T02:35:35.223Z, 22.54
2022-10-02T02:36:35.667Z, 22.52
2022-10-02T02:37:35.296Z, 22.51
2022-10-02T02:38:35.325Z, 22.51
2022-10-02T02:39:35.366Z, 22.54
2022-10-02T02:40:35.451Z, 22.51
2022-10-02T02:41:35.445Z, 22.53
2022-10-02T02:42:35.455Z, 22.52
2022-10-02T02:43:35.578Z, 22.51
2022-10-02T02:44:35.548Z, 22.53
2022-10-02T02:45:35.611Z, 22.50
2022-10-02T02:46:35.893Z, 22.50
2022-10-02T02:47:35.644Z, 22.52
2022-10-02T02:48:35.685Z, 22.52
2022-10-02T02:49:35.785Z, 22.51
2022-10-02T02:50:35.756Z, 22.52
2022-10-02T02:51:35.760Z, 22.51
2022-10-02T02:52:35.882Z, 22.51
2022-10-02T02:53:35.916Z, 22.51
2022-10-02T02:54:35.944Z, 22.52
2022-10-02T02:55:35.926Z, 22.51
2022-10-02T02:56:36.196Z, 22.51
2022-10-02T02:57:35.982Z, 22.51
2022-10-02T02:58:36.075Z, 22.53
2022-10-02T02:59:36.066Z, 22.53
2022-10-02T03:00:36.130Z, 22.53
2022-10-02T03:01:36.127Z, 22.52
2022-10-02T03:02:36.337Z, 22.51
2022-10-02T03:03:36.241Z, 22.50
2022-10-02T03:04:36.217Z, 22.54
2022-10-02T03:05:36.259Z, 22.52
2022-10-02T03:06:36.691Z, 22.50
2022-10-02T03:07:36.333Z, 22.51
2022-10-02T03:08:36.438Z, 22.49
2022-10-02T03:09:36.432Z, 22.49
2022-10-02T03:10:36.478Z, 22.52
2022-10-02T03:11:36.464Z, 22.52
2022-10-02T03:12:36.527Z, 22.50
2022-10-02T03:13:36.530Z, 22.52
2022-10-02T03:14:36.560Z, 22.50
2022-10-02T03:15:36.645Z, 22.51
2022-10-02T03:16:36.948Z, 22.49
2022-10-02T03:17:36.649Z, 22.50
2022-10-02T03:18:36.690Z, 22.51
2022-10-02T03:19:36.775Z, 22.52
2022-10-02T03:20:36.754Z, 22.51
2022-10-02T03:21:36.854Z, 22.52
2022-10-02T03:22:36.841Z, 22.53
2022-10-02T03:23:36.835Z, 22.50
2022-10-02T03:24:36.861Z, 22.50
2022-10-02T03:25:36.956Z, 22.51
2022-10-02T03:26:37.320Z, 22.51
2022-10-02T03:27:36.946Z, 22.52
2022-10-02T03:28:55.002Z, 22.50
2022-10-02T03:29:37.021Z, 22.49
2022-10-02T03:30:37.217Z, 22.52
2022-10-02T03:31:37.133Z, 22.51
2022-10-02T03:32:37.116Z, 22.50
2022-10-02T03:33:37.196Z, 22.50
2022-10-02T03:34:37.185Z, 22.50
2022-10-02T03:35:37.249Z, 22.50
2022-10-02T03:36:37.466Z, 22.52
2022-10-02T03:37:37.281Z, 22.51
2022-10-02T03:38:37.291Z, 22.50
2022-10-02T03:39:37.326Z, 22.51
2022-10-02T03:40:37.371Z, 22.50
2022-10-02T03:41:37.416Z, 22.51
2022-10-02T03:42:37.506Z, 22.53
2022-10-02T03:43:37.486Z, 22.50
2022-10-02T03:44:37.492Z, 22.50
2022-10-02T03:45:50.921Z, 22.52
2022-10-02T03:46:37.959Z, 22.49
2022-10-02T03:47:37.627Z, 22.52
2022-10-02T03:48:37.793Z, 22.51
2022-10-02T03:49:37.791Z, 22.51
2022-10-02T03:50:37.785Z, 22.52
2022-10-02T03:51:37.792Z, 22.51
2022-10-02T03:52:37.778Z, 22.51
2022-10-02T03:53:37.807Z, 22.51
2022-10-02T03:54:37.852Z, 22.50
2022-10-02T03:55:37.901Z, 22.51
2022-10-02T03:56:38.293Z, 22.51
2022-10-02T03:57:37.993Z, 22.50
2022-10-02T03:58:38.104Z, 22.49
2022-10-02T03:59:38.088Z, 22.51
2022-10-02T04:00:38.107Z, 22.51
2022-10-02T04:01:38.170Z, 22.50
2022-10-02T04:02:38.175Z, 22.52
2022-10-02T04:03:38.292Z, 22.51
2022-10-02T04:04:38.220Z, 22.51
2022-10-02T04:05:38.255Z, 22.51
2022-10-02T04:06:38.676Z, 22.51
2022-10-02T04:07:38.341Z, 22.52
2022-10-02T04:08:38.414Z, 22.52
2022-10-02T04:09:38.406Z, 22.50
2022-10-02T04:10:38.470Z, 22.51
2022-10-02T04:11:38.467Z, 22.53
2022-10-02T04:12:38.524Z, 22.51
2022-10-02T04:13:38.511Z, 22.52
2022-10-02T04:14:38.553Z, 22.52
2022-10-02T04:15:38.629Z, 22.51
2022-10-02T04:16:39.091Z, 22.53
2022-10-02T04:17:38.681Z, 22.52
2022-10-02T04:18:38.677Z, 22.52
2022-10-02T04:19:38.750Z, 22.51
2022-10-02T04:20:38.736Z, 22.49
2022-10-02T04:21:38.834Z, 22.50
2022-10-02T04:22:38.881Z, 22.54
2022-10-02T04:23:38.866Z, 22.49
2022-10-02T04:24:38.905Z, 22.51
2022-10-02T04:25:38.903Z, 22.52
2022-10-02T04:26:39.270Z, 22.52
2022-10-02T04:27:38.959Z, 22.53
2022-10-02T04:28:39.006Z, 22.54
2022-10-02T04:29:39.053Z, 22.51
2022-10-02T04:30:39.130Z, 22.51
2022-10-02T04:31:39.243Z, 22.53
2022-10-02T04:32:39.152Z, 22.52
2022-10-02T04:33:39.186Z, 22.52
2022-10-02T04:34:39.208Z, 22.55
2022-10-02T04:35:39.301Z, 22.52
2022-10-02T04:36:39.575Z, 22.52
2022-10-02T04:37:39.336Z, 22.53
2022-10-02T04:38:39.399Z, 22.52
2022-10-02T04:39:42.403Z, 22.53
2022-10-02T04:40:39.476Z, 22.54
2022-10-02T04:41:39.495Z, 22.52
2022-10-02T04:42:39.491Z, 22.53
2022-10-02T04:43:39.581Z, 22.52
2022-10-02T04:44:39.558Z, 22.52
2022-10-02T04:45:39.656Z, 22.54
2022-10-02T04:46:39.665Z, 22.52
2022-10-02T04:47:39.639Z, 22.37
2022-10-02T04:48:39.674Z, 22.20
2022-10-02T04:49:39.710Z, 21.91
2022-10-02T04:50:39.779Z, 22.05
2022-10-02T04:51:39.748Z, 22.10
2022-10-02T04:52:39.784Z, 21.97
2022-10-02T04:53:39.818Z, 21.99
2022-10-02T04:54:39.846Z, 22.01
2022-10-02T04:55:39.878Z, 21.85
2022-10-02T04:56:39.920Z, 22.05
2022-10-02T04:57:39.938Z, 22.00
2022-10-02T04:58:40.044Z, 22.00
2022-10-02T04:59:40.036Z, 21.94
2022-10-02T05:00:40.119Z, 21.88
2022-10-02T05:01:40.170Z, 21.88
2022-10-02T05:02:40.227Z, 21.95
2022-10-02T05:03:40.236Z, 21.90
2022-10-02T05:04:40.210Z, 21.83
2022-10-02T05:05:40.268Z, 22.03
2022-10-02T05:06:40.270Z, 21.94
2022-10-02T05:07:40.300Z, 21.94
2022-10-02T05:08:40.336Z, 22.18
2022-10-02T05:09:40.444Z, 22.14
2022-10-02T05:10:40.415Z, 22.13
2022-10-02T05:11:40.498Z, 22.26
2022-10-02T05:12:40.471Z, 22.33
2022-10-02T05:13:40.543Z, 22.35
2022-10-02T05:14:40.591Z, 22.38
2022-10-02T05:15:40.562Z, 22.39
2022-10-02T05:16:41.050Z, 22.40
2022-10-02T05:17:40.647Z, 22.41
2022-10-02T05:18:40.647Z, 22.39
2022-10-02T05:19:40.707Z, 22.40
2022-10-02T05:20:40.714Z, 22.40
2022-10-02T05:21:40.804Z, 22.41
2022-10-02T05:22:40.794Z, 22.41
2022-10-02T05:23:40.834Z, 22.43
2022-10-02T05:24:40.903Z, 22.39
2022-10-02T05:25:40.973Z, 22.42
2022-10-02T05:26:41.008Z, 22.40
2022-10-02T05:27:40.991Z, 22.41
2022-10-02T05:28:41.005Z, 22.42
2022-10-02T05:29:41.072Z, 22.42
2022-10-02T05:30:41.083Z, 22.42
2022-10-02T05:31:41.249Z, 22.42
2022-10-02T05:32:41.158Z, 22.42
2022-10-02T05:33:45.983Z, 22.42
2022-10-02T05:34:41.225Z, 22.44
2022-10-02T05:35:41.346Z, 22.43
2022-10-02T05:36:41.323Z, 22.42
2022-10-02T05:37:41.332Z, 22.42
2022-10-02T05:38:41.356Z, 22.43
2022-10-02T05:39:41.390Z, 22.42
2022-10-02T05:40:41.475Z, 22.44
2022-10-02T05:41:41.503Z, 22.42
2022-10-02T05:42:43.253Z, 22.43
2022-10-02T05:43:41.565Z, 22.45
2022-10-02T05:44:41.536Z, 22.42
2022-10-02T05:45:41.786Z, 22.45
2022-10-02T05:46:41.855Z, 22.44
2022-10-02T05:47:41.787Z, 22.43
2022-10-02T05:48:41.673Z, 22.45
2022-10-02T05:49:41.793Z, 22.44
2022-10-02T05:50:41.785Z, 22.44
2022-10-02T05:51:41.753Z, 22.45
2022-10-02T05:52:41.822Z, 22.44
2022-10-02T05:53:41.827Z, 22.44
2022-10-02T05:54:41.922Z, 22.46
2022-10-02T05:55:41.982Z, 22.45
2022-10-02T05:56:41.952Z, 22.44
2022-10-02T05:57:42.034Z, 22.44
2022-10-02T05:58:42.018Z, 22.43
2022-10-02T05:59:42.033Z, 22.44
2022-10-02T06:00:42.175Z, 22.46
2022-10-02T06:01:42.127Z, 22.46
2022-10-02T06:02:42.198Z, 22.44
2022-10-02T06:03:42.221Z, 22.47
2022-10-02T06:04:42.258Z, 22.44
2022-10-02T06:05:42.307Z, 22.45
2022-10-02T06:06:42.300Z, 22.46
2022-10-02T06:07:42.328Z, 22.45
2022-10-02T06:08:42.398Z, 22.46
2022-10-02T06:09:42.395Z, 22.46
2022-10-02T06:10:42.414Z, 22.46
2022-10-02T06:11:42.443Z, 22.46
2022-10-02T06:12:42.577Z, 22.47
2022-10-02T06:13:42.594Z, 22.45
2022-10-02T06:14:43.397Z, 22.46
2022-10-02T06:15:42.612Z, 22.46
2022-10-02T06:16:42.735Z, 22.45
2022-10-02T06:17:42.697Z, 22.47
2022-10-02T06:18:42.722Z, 22.46
2022-10-02T06:19:42.779Z, 22.45
2022-10-02T06:20:42.762Z, 22.47
2022-10-02T06:21:42.774Z, 22.45
2022-10-02T06:22:42.821Z, 22.45
2022-10-02T06:23:42.845Z, 22.46
2022-10-02T06:24:42.888Z, 22.45
2022-10-02T06:25:42.913Z, 22.43
2022-10-02T06:26:42.928Z, 22.46
2022-10-02T06:27:42.978Z, 22.46
2022-10-02T06:28:43.002Z, 22.46
2022-10-02T06:29:43.054Z, 22.45
2022-10-02T06:30:43.133Z, 22.45
2022-10-02T06:31:43.181Z, 22.45
2022-10-02T06:32:43.146Z, 22.46
2022-10-02T06:33:43.182Z, 22.46
2022-10-02T06:34:47.653Z, 22.47
2022-10-02T06:35:43.319Z, 22.47
2022-10-02T06:36:43.339Z, 22.45
2022-10-02T06:37:43.383Z, 22.48
2022-10-02T06:38:43.364Z, 22.47
2022-10-02T06:39:43.381Z, 22.48
2022-10-02T06:40:43.415Z, 22.46
2022-10-02T06:41:43.443Z, 22.47
2022-10-02T06:42:43.470Z, 22.46
2022-10-02T06:43:43.499Z, 22.47
2022-10-02T06:44:43.543Z, 22.45
2022-10-02T06:45:43.595Z, 22.46
2022-10-02T06:46:43.681Z, 22.48
2022-10-02T06:47:43.698Z, 22.46
2022-10-02T06:48:43.684Z, 22.46
2022-10-02T06:49:43.723Z, 22.48
2022-10-02T06:50:43.771Z, 22.47
2022-10-02T06:51:43.763Z, 22.48
2022-10-02T06:52:43.856Z, 22.45
2022-10-02T06:53:43.881Z, 22.46
2022-10-02T06:54:43.924Z, 22.48
2022-10-02T06:55:43.926Z, 22.47
2022-10-02T06:56:43.971Z, 22.47
2022-10-02T06:57:43.961Z, 22.49
2022-10-02T06:58:43.981Z, 22.46
2022-10-02T06:59:44.029Z, 22.46
2022-10-02T07:00:44.121Z, 22.47
2022-10-02T07:01:44.143Z, 22.45
2022-10-02T07:02:44.161Z, 22.47
2022-10-02T07:03:44.261Z, 22.46
2022-10-02T07:04:44.235Z, 22.45
2022-10-02T07:05:44.240Z, 22.47
2022-10-02T07:06:44.262Z, 22.45
2022-10-02T07:07:44.346Z, 22.46
2022-10-02T07:08:44.341Z, 22.48
2022-10-02T07:09:44.431Z, 22.47
2022-10-02T07:10:44.490Z, 22.47
2022-10-02T07:11:44.479Z, 22.48
2022-10-02T07:12:44.499Z, 22.46
2022-10-02T07:13:44.530Z, 22.46
2022-10-02T07:14:44.624Z, 22.48
2022-10-02T07:15:44.611Z, 22.46
2022-10-02T07:16:44.741Z, 22.46
2022-10-02T07:17:44.660Z, 22.48
2022-10-02T07:18:44.708Z, 22.45
2022-10-02T07:19:44.820Z, 22.46
2022-10-02T07:20:44.847Z, 22.47
2022-10-02T07:21:44.818Z, 22.47
2022-10-02T07:22:45.863Z, 22.46
2022-10-02T07:23:44.868Z, 22.48
2022-10-02T07:24:44.890Z, 22.47
2022-10-02T07:25:44.997Z, 22.47
2022-10-02T07:26:45.052Z, 22.48
2022-10-02T07:27:45.017Z, 22.46
2022-10-02T07:28:45.043Z, 22.47
2022-10-02T07:29:45.077Z, 22.48
2022-10-02T07:30:45.107Z, 22.48
2022-10-02T07:31:45.228Z, 22.46
2022-10-02T07:32:45.187Z, 22.46
2022-10-02T07:33:45.238Z, 22.46
2022-10-02T07:34:45.249Z, 22.47
2022-10-02T07:35:45.286Z, 22.47
2022-10-02T07:36:45.305Z, 22.47
2022-10-02T07:37:45.398Z, 22.48
2022-10-02T07:38:45.391Z, 22.47
2022-10-02T07:39:45.398Z, 22.48
2022-10-02T07:40:45.423Z, 22.49
2022-10-02T07:41:45.449Z, 22.49
2022-10-02T07:42:45.499Z, 22.47
2022-10-02T07:43:45.536Z, 22.49
2022-10-02T07:44:45.580Z, 22.48
2022-10-02T07:45:45.679Z, 22.49
2022-10-02T07:46:45.638Z, 22.49
2022-10-02T07:47:45.668Z, 22.47
2022-10-02T07:48:45.757Z, 22.49
2022-10-02T07:49:45.763Z, 22.49
2022-10-02T07:50:45.790Z, 22.48
2022-10-02T07:51:45.823Z, 22.50
2022-10-02T07:52:45.880Z, 22.49
2022-10-02T07:53:45.903Z, 22.48
2022-10-02T07:54:45.932Z, 22.49
2022-10-02T07:55:45.943Z, 22.49
2022-10-02T07:56:45.993Z, 22.48
2022-10-02T07:57:46.125Z, 22.49
2022-10-02T07:58:46.098Z, 22.48
2022-10-02T07:59:46.128Z, 22.49
2022-10-02T08:00:46.184Z, 22.51
2022-10-02T08:01:46.260Z, 22.49
2022-10-02T08:02:46.328Z, 22.49
2022-10-02T08:03:46.201Z, 22.50
2022-10-02T08:04:46.208Z, 22.50
2022-10-02T08:05:46.324Z, 22.48
2022-10-02T08:06:46.318Z, 22.51
2022-10-02T08:07:46.336Z, 22.49
2022-10-02T08:08:46.433Z, 22.50
2022-10-02T08:09:46.439Z, 22.50
2022-10-02T08:10:46.502Z, 22.49
2022-10-02T08:11:49.516Z, 22.51
2022-10-02T08:12:46.542Z, 22.49
2022-10-02T08:13:46.612Z, 22.50
2022-10-02T08:14:46.587Z, 22.50
2022-10-02T08:15:46.616Z, 22.50
2022-10-02T08:16:46.694Z, 22.49
2022-10-02T08:17:46.705Z, 22.50
2022-10-02T08:18:46.711Z, 22.50
2022-10-02T08:19:46.741Z, 22.49
2022-10-02T08:20:46.859Z, 22.50
2022-10-02T08:21:46.874Z, 22.50
2022-10-02T08:22:46.865Z, 22.49
2022-10-02T08:23:46.910Z, 22.51
2022-10-02T08:24:46.924Z, 22.50
2022-10-02T08:25:46.943Z, 22.49
2022-10-02T08:26:46.981Z, 22.50
2022-10-02T08:27:47.077Z, 22.51
2022-10-02T08:28:47.032Z, 22.49
2022-10-02T08:29:47.071Z, 22.49
2022-10-02T08:30:47.115Z, 22.50
2022-10-02T08:31:47.230Z, 22.49
2022-10-02T08:32:47.170Z, 22.51
2022-10-02T08:33:47.268Z, 22.50
2022-10-02T08:34:47.314Z, 22.49
2022-10-02T08:35:47.293Z, 22.48
2022-10-02T08:36:47.403Z, 22.48
2022-10-02T08:37:47.382Z, 22.50
2022-10-02T08:38:50.324Z, 22.49
2022-10-02T08:39:47.454Z, 22.48
2022-10-02T08:40:47.537Z, 22.51
2022-10-02T08:41:47.532Z, 22.50
2022-10-02T08:42:47.548Z, 22.49
2022-10-02T08:43:47.568Z, 22.51
2022-10-02T08:44:47.604Z, 22.50
2022-10-02T08:45:47.823Z, 22.49
2022-10-02T08:46:47.733Z, 22.49
2022-10-02T08:47:47.720Z, 22.49
2022-10-02T08:48:47.740Z, 22.48
2022-10-02T08:49:47.813Z, 22.51
2022-10-02T08:50:47.812Z, 22.48
2022-10-02T08:51:47.834Z, 22.49
2022-10-02T08:52:47.847Z, 22.51
2022-10-02T08:53:47.898Z, 22.50
2022-10-02T08:54:47.933Z, 22.49
2022-10-02T08:55:47.973Z, 22.52
2022-10-02T08:56:48.029Z, 22.50
2022-10-02T08:57:48.052Z, 22.49
2022-10-02T08:58:48.114Z, 22.51
2022-10-02T08:59:48.119Z, 22.49
2022-10-02T09:00:48.191Z, 22.49
2022-10-02T09:01:48.322Z, 22.32
2022-10-02T09:02:48.240Z, 22.05
2022-10-02T09:03:48.277Z, 21.98
2022-10-02T09:04:48.294Z, 21.98
2022-10-02T09:05:48.325Z, 22.01
2022-10-02T09:06:48.359Z, 21.96
2022-10-02T09:07:48.416Z, 22.06
2022-10-02T09:08:48.417Z, 21.96
2022-10-02T09:09:48.586Z, 21.96
2022-10-02T09:10:48.566Z, 21.82
2022-10-02T09:11:48.541Z, 21.86
2022-10-02T09:12:48.578Z, 21.98
2022-10-02T09:13:48.614Z, 21.86
2022-10-02T09:14:48.682Z, 21.95
2022-10-02T09:15:48.741Z, 22.01
2022-10-02T09:16:48.780Z, 21.97
2022-10-02T09:17:48.773Z, 22.05
2022-10-02T09:18:48.768Z, 21.91
2022-10-02T09:19:48.919Z, 21.75
2022-10-02T09:20:48.862Z, 21.85
2022-10-02T09:21:48.909Z, 21.90
2022-10-02T09:22:48.940Z, 21.94
2022-10-02T09:23:49.031Z, 21.95
2022-10-02T09:24:49.044Z, 21.99
2022-10-02T09:25:49.043Z, 21.97
2022-10-02T09:26:49.073Z, 21.88
2022-10-02T09:27:49.123Z, 21.81
2022-10-02T09:28:49.183Z, 21.91
2022-10-02T09:29:49.193Z, 21.90
2022-10-02T09:30:49.190Z, 21.96
2022-10-02T09:31:49.339Z, 21.84
2022-10-02T09:32:49.255Z, 21.94
2022-10-02T09:33:49.297Z, 21.77
2022-10-02T09:34:49.342Z, 21.88
2022-10-02T09:35:49.439Z, 21.80
2022-10-02T09:36:49.479Z, 21.72
2022-10-02T09:37:49.442Z, 21.90
2022-10-02T09:38:49.497Z, 21.88
2022-10-02T09:39:49.512Z, 21.88
2022-10-02T09:40:49.540Z, 21.93
2022-10-02T09:41:49.566Z, 21.92
2022-10-02T09:42:49.628Z, 21.97
2022-10-02T09:43:49.640Z, 21.92
2022-10-02T09:44:49.671Z, 21.98
2022-10-02T09:45:49.783Z, 21.86
2022-10-02T09:46:49.825Z, 21.92
2022-10-02T09:47:49.809Z, 21.95
2022-10-02T09:48:49.807Z, 21.82
2022-10-02T09:49:49.900Z, 21.93
2022-10-02T09:50:49.927Z, 21.95
2022-10-02T09:51:49.904Z, 21.81
2022-10-02T09:52:50.008Z, 21.88
2022-10-02T09:53:50.133Z, 21.88
2022-10-02T09:54:50.003Z, 21.87
2022-10-02T09:55:50.162Z, 21.97
2022-10-02T09:56:50.081Z, 21.93
2022-10-02T09:57:50.076Z, 21.94
2022-10-02T09:58:50.139Z, 21.85
2022-10-02T09:59:50.156Z, 21.94
2022-10-02T10:00:50.275Z, 21.83
2022-10-02T10:01:50.319Z, 21.80
2022-10-02T10:02:50.361Z, 21.84
2022-10-02T10:03:50.298Z, 21.86
2022-10-02T10:05:05.069Z, 21.96
2022-10-02T10:06:50.460Z, 21.89
2022-10-02T10:07:50.385Z, 21.86
2022-10-02T10:08:50.401Z, 21.92
2022-10-02T10:09:50.480Z, 21.89
2022-10-02T10:10:50.549Z, 21.89
2022-10-02T10:11:50.515Z, 21.81
2022-10-02T10:12:50.534Z, 21.86
2022-10-02T10:13:50.564Z, 21.82
2022-10-02T10:14:50.615Z, 21.91
2022-10-02T10:15:50.718Z, 21.91
2022-10-02T10:16:50.874Z, 21.87
2022-10-02T10:17:50.742Z, 21.88
2022-10-02T10:18:50.827Z, 21.89
2022-10-02T10:19:50.819Z, 21.90
2022-10-02T10:20:50.840Z, 21.89
2022-10-02T10:21:50.870Z, 21.87
2022-10-02T10:22:50.959Z, 21.93
2022-10-02T10:23:50.934Z, 21.89
2022-10-02T10:24:50.955Z, 21.88
2022-10-02T10:25:51.038Z, 21.96
2022-10-02T10:26:51.092Z, 21.81
2022-10-02T10:27:51.118Z, 21.85
2022-10-02T10:28:51.095Z, 21.93
2022-10-02T10:29:51.128Z, 21.85
2022-10-02T10:30:51.148Z, 21.84
2022-10-02T10:31:51.210Z, 21.96
2022-10-02T10:32:51.269Z, 21.94
2022-10-02T10:33:51.294Z, 21.94
2022-10-02T10:34:51.349Z, 21.88
2022-10-02T10:35:51.327Z, 21.91
2022-10-02T10:36:51.357Z, 21.86
2022-10-02T10:37:51.417Z, 21.88
2022-10-02T10:38:51.415Z, 21.95
2022-10-02T10:39:51.439Z, 21.92
2022-10-02T10:40:51.484Z, 21.96
2022-10-02T10:41:51.543Z, 21.90
2022-10-02T10:43:06.902Z, 21.87
2022-10-02T10:43:51.625Z, 21.95
2022-10-02T10:44:51.609Z, 21.94
2022-10-02T10:45:51.686Z, 21.89
2022-10-02T10:46:51.647Z, 21.92
2022-10-02T10:47:51.743Z, 21.94
2022-10-02T10:48:51.742Z, 21.88
2022-10-02T10:49:51.801Z, 21.92
2022-10-02T10:50:51.849Z, 21.88
2022-10-02T10:51:51.837Z, 21.83
2022-10-02T10:52:51.846Z, 21.96
2022-10-02T10:53:51.879Z, 21.93
2022-10-02T10:54:51.924Z, 21.89
2022-10-02T10:55:51.936Z, 21.97
2022-10-02T10:56:52.126Z, 21.89
2022-10-02T10:57:52.039Z, 21.93
2022-10-02T10:58:52.030Z, 21.91
2022-10-02T10:59:52.057Z, 21.91
2022-10-02T11:00:52.131Z, 21.89
2022-10-02T11:01:52.139Z, 21.97
2022-10-02T11:02:52.150Z, 21.81
2022-10-02T11:03:52.191Z, 21.95
2022-10-02T11:04:52.240Z, 21.94
2022-10-02T11:05:52.270Z, 21.91
2022-10-02T11:06:52.312Z, 21.87
2022-10-02T11:07:52.382Z, 21.86
2022-10-02T11:08:52.438Z, 21.88
2022-10-02T11:09:52.481Z, 21.91
2022-10-02T11:10:52.455Z, 21.87
2022-10-02T11:11:52.489Z, 21.89
2022-10-02T11:12:52.515Z, 21.91
2022-10-02T11:13:52.546Z, 21.94
2022-10-02T11:14:52.586Z, 21.92
2022-10-02T11:15:52.676Z, 21.92
2022-10-02T11:16:52.782Z, 21.88
2022-10-02T11:17:52.677Z, 21.85
2022-10-02T11:18:52.697Z, 21.85
2022-10-02T11:19:52.726Z, 21.91
2022-10-02T11:20:52.772Z, 21.89
2022-10-02T11:21:52.810Z, 21.90
2022-10-02T11:22:52.846Z, 21.87
2022-10-02T11:23:52.891Z, 21.89
2022-10-02T11:24:52.919Z, 21.92
2022-10-02T11:25:52.954Z, 21.95
2022-10-02T11:26:52.982Z, 21.88
2022-10-02T11:27:53.091Z, 21.87
2022-10-02T11:28:53.067Z, 21.89
2022-10-02T11:29:53.129Z, 21.94
2022-10-02T11:30:53.137Z, 21.86
2022-10-02T11:31:53.177Z, 21.89
2022-10-02T11:32:53.204Z, 21.90
2022-10-02T11:33:53.229Z, 21.91
2022-10-02T11:34:53.319Z, 21.86
2022-10-02T11:35:53.320Z, 21.90
2022-10-02T11:36:53.333Z, 21.90
2022-10-02T11:37:53.489Z, 21.88
2022-10-02T11:38:53.493Z, 21.89
2022-10-02T11:39:53.489Z, 21.86
2022-10-02T11:40:53.492Z, 21.90
2022-10-02T11:41:53.526Z, 21.82
2022-10-02T11:42:53.526Z, 21.91
2022-10-02T11:43:53.538Z, 21.80
2022-10-02T11:44:53.581Z, 21.95
2022-10-02T11:45:53.667Z, 21.87
2022-10-02T11:46:53.672Z, 21.83
2022-10-02T11:47:53.765Z, 21.93
2022-10-02T11:48:53.790Z, 21.88
2022-10-02T11:49:53.754Z, 21.87
2022-10-02T11:50:53.837Z, 21.86
2022-10-02T11:51:53.879Z, 21.87
2022-10-02T11:52:53.854Z, 21.91
2022-10-02T11:53:53.886Z, 21.88
2022-10-02T11:54:53.937Z, 21.89
2022-10-02T11:55:53.996Z, 21.92
2022-10-02T11:56:54.060Z, 21.82
2022-10-02T11:57:54.033Z, 21.90
2022-10-02T11:58:54.048Z, 21.85
2022-10-02T11:59:54.075Z, 21.95
2022-10-02T12:00:54.156Z, 21.88
2022-10-02T12:01:54.285Z, 21.88
2022-10-02T12:02:54.368Z, 21.91
2022-10-02T12:03:54.236Z, 21.88
2022-10-02T12:04:54.296Z, 21.89
2022-10-02T12:05:54.300Z, 21.93
2022-10-02T12:06:54.337Z, 21.89
2022-10-02T12:07:54.403Z, 21.86
2022-10-02T12:08:54.412Z, 21.90
2022-10-02T12:09:58.309Z, 21.81
2022-10-02T12:10:54.459Z, 21.88
2022-10-02T12:11:54.492Z, 21.85
2022-10-02T12:12:54.531Z, 21.89
2022-10-02T12:13:54.626Z, 21.80
2022-10-02T12:14:54.587Z, 21.87
2022-10-02T12:15:54.674Z, 21.86
2022-10-02T12:16:54.726Z, 21.91
2022-10-02T12:17:54.752Z, 21.94
2022-10-02T12:18:54.808Z, 21.92
2022-10-02T12:19:54.822Z, 21.94
2022-10-02T12:20:54.843Z, 21.90
2022-10-02T12:21:54.902Z, 21.88
2022-10-02T12:22:54.879Z, 21.88
2022-10-02T12:23:54.930Z, 21.84
2022-10-02T12:24:55.127Z, 21.86
2022-10-02T12:25:54.989Z, 21.86
2022-10-02T12:26:55.075Z, 21.86
2022-10-02T12:27:55.087Z, 21.87
2022-10-02T12:28:55.090Z, 21.89
2022-10-02T12:29:55.109Z, 21.86